createdAt,value
2018-02-21T00:01:12.998Z,14.38
2018-02-21T00:03:41.481Z,12.05
2018-02-21T00:06:09.787Z,12.45
2018-02-21T00:08:37.980Z,8.85
2018-02-21T00:11:06.227Z,11.90
2018-02-21T00:13:41.522Z,12.90
2018-02-21T00:16:09.840Z,13.57
2018-02-21T00:18:37.774Z,11.10
2018-02-21T00:21:06.027Z,11.80
2018-02-21T00:23:34.094Z,11.55
2018-02-21T00:26:02.290Z,15.75
2018-02-21T00:28:30.397Z,14.35
2018-02-21T00:30:58.577Z,14.60
2018-02-21T00:33:26.890Z,14.45
2018-02-21T00:35:54.969Z,17.73
2018-02-21T00:38:23.275Z,17.23
2018-02-21T00:40:51.474Z,15.38
2018-02-21T00:43:19.861Z,14.93
2018-02-21T00:45:48.149Z,18.37
2018-02-21T00:48:16.450Z,20.02
2018-02-21T00:50:44.650Z,16.80
2018-02-21T00:53:13.155Z,13.77
2018-02-21T00:55:41.438Z,17.80
2018-02-21T00:58:09.639Z,17.20
2018-02-21T01:00:37.656Z,16.17
2018-02-21T01:03:05.719Z,16.37
2018-02-21T01:05:33.921Z,18.12
2018-02-21T01:08:02.118Z,17.23
2018-02-21T01:10:30.296Z,27.77
2018-02-21T01:12:58.498Z,16.58
2018-02-21T01:15:26.629Z,19.12
2018-02-21T01:17:54.878Z,17.25
2018-02-21T01:20:23.192Z,15.85
2018-02-21T01:22:51.574Z,18.37
2018-02-21T01:25:19.986Z,16.00
2018-02-21T01:27:48.275Z,14.73
2018-02-21T01:30:16.682Z,17.90
2018-02-21T01:32:44.977Z,15.18
2018-02-21T01:35:13.379Z,15.07
2018-02-21T01:37:41.582Z,16.42
2018-02-21T01:40:09.761Z,14.77
2018-02-21T01:42:37.824Z,17.55
2018-02-21T01:45:06.153Z,14.98
2018-02-21T01:47:34.356Z,15.52
2018-02-21T01:50:02.442Z,14.70
2018-02-21T01:52:30.629Z,18.45
2018-02-21T01:54:58.606Z,19.30
2018-02-21T01:57:26.812Z,19.02
2018-02-21T01:59:55.329Z,17.62
2018-02-21T02:02:23.625Z,20.83
2018-02-21T02:04:51.814Z,15.82
2018-02-21T02:07:20.308Z,21.90
2018-02-21T02:09:48.506Z,16.20
2018-02-21T02:12:16.810Z,13.95
2018-02-21T02:14:45.095Z,20.33
2018-02-21T02:17:13.297Z,19.35
2018-02-21T02:19:41.595Z,17.50
2018-02-21T02:22:09.991Z,18.23
2018-02-21T02:24:38.183Z,21.02
2018-02-21T02:27:06.578Z,16.00
2018-02-21T02:29:34.841Z,16.95
2018-02-21T02:32:03.175Z,16.80
2018-02-21T02:34:31.349Z,21.37
2018-02-21T02:36:59.675Z,21.62
2018-02-21T02:39:28.062Z,22.45
2018-02-21T02:41:56.362Z,21.60
2018-02-21T02:44:24.654Z,18.95
2018-02-21T02:46:52.959Z,18.60
2018-02-21T02:49:21.255Z,18.27
2018-02-21T02:51:49.441Z,20.37
2018-02-21T02:54:17.960Z,21.87
2018-02-21T02:56:46.248Z,22.58
2018-02-21T02:59:14.652Z,23.23
2018-02-21T03:01:42.841Z,20.52
2018-02-21T03:04:10.923Z,20.80
2018-02-21T03:06:38.966Z,19.45
2018-02-21T03:09:07.123Z,22.40
2018-02-21T03:11:35.324Z,18.50
2018-02-21T03:14:03.506Z,22.55
2018-02-21T03:16:31.707Z,19.30
2018-02-21T03:19:00.007Z,23.70
2018-02-21T03:21:28.190Z,20.08
2018-02-21T03:23:56.480Z,22.62
2018-02-21T03:26:24.776Z,22.90
2018-02-21T03:28:53.082Z,17.02
2018-02-21T03:31:21.380Z,17.40
2018-02-21T03:33:49.769Z,21.05
2018-02-21T03:36:18.158Z,22.25
2018-02-21T03:38:46.244Z,24.02
2018-02-21T03:41:14.358Z,19.75
2018-02-21T03:43:43.114Z,22.73
2018-02-21T03:46:11.075Z,22.58
2018-02-21T03:48:39.352Z,23.90
2018-02-21T03:51:07.550Z,21.40
2018-02-21T03:53:35.836Z,21.60
2018-02-21T03:56:04.033Z,22.10
2018-02-21T03:58:32.228Z,17.80
2018-02-21T04:01:00.234Z,18.45
2018-02-21T04:03:29.096Z,19.55
2018-02-21T04:05:57.542Z,18.70
2018-02-21T04:08:25.735Z,15.48
2018-02-21T04:10:54.116Z,15.00
2018-02-21T04:13:22.333Z,17.25
2018-02-21T04:15:50.618Z,15.52
2018-02-21T04:18:18.834Z,15.88
2018-02-21T04:20:47.287Z,15.20
2018-02-21T04:23:15.506Z,14.45
2018-02-21T04:25:43.649Z,17.70
2018-02-21T04:28:12.103Z,14.43
2018-02-21T04:30:40.298Z,16.67
2018-02-21T04:33:08.491Z,17.90
2018-02-21T04:35:36.773Z,18.48
2018-02-21T04:38:05.575Z,20.67
2018-02-21T04:40:33.543Z,15.52
2018-02-21T04:43:01.965Z,19.85
2018-02-21T04:45:30.021Z,20.73
2018-02-21T04:47:58.169Z,23.85
2018-02-21T04:50:27.078Z,22.10
2018-02-21T04:52:55.380Z,18.70
2018-02-21T04:55:23.770Z,22.58
2018-02-21T04:57:52.175Z,19.55
2018-02-21T05:00:20.579Z,19.17
2018-02-21T05:02:48.843Z,18.45
2018-02-21T05:05:16.926Z,19.85
2018-02-21T05:07:44.955Z,20.65
2018-02-21T05:10:13.151Z,20.10
2018-02-21T05:12:41.237Z,21.55
2018-02-21T05:15:09.429Z,23.98
2018-02-21T05:17:37.524Z,20.48
2018-02-21T05:20:05.633Z,20.40
2018-02-21T05:22:34.835Z,22.98
2018-02-21T05:25:03.032Z,24.48
2018-02-21T05:27:31.216Z,25.42
2018-02-21T05:29:59.436Z,20.10
2018-02-21T05:32:27.800Z,24.25
2018-02-21T05:34:56.037Z,21.25
2018-02-21T05:37:24.308Z,25.12
2018-02-21T05:39:52.600Z,23.70
2018-02-21T05:42:20.895Z,27.55
2018-02-21T05:44:49.298Z,24.92
2018-02-21T05:47:17.380Z,22.10
2018-02-21T05:49:45.573Z,21.52
2018-02-21T05:52:13.780Z,20.42
2018-02-21T05:54:42.063Z,21.40
2018-02-21T05:57:10.171Z,16.77
2018-02-21T05:59:38.359Z,23.73
2018-02-21T06:02:06.558Z,22.13
2018-02-21T06:04:34.849Z,20.45
2018-02-21T06:07:03.143Z,20.50
2018-02-21T06:09:31.371Z,22.20
2018-02-21T06:11:59.693Z,20.20
2018-02-21T06:14:28.140Z,22.00
2018-02-21T06:16:56.528Z,19.87
2018-02-21T06:19:24.742Z,20.27
2018-02-21T06:21:53.031Z,20.83
2018-02-21T06:24:21.222Z,19.67
2018-02-21T06:26:49.321Z,17.27
2018-02-21T06:29:17.344Z,17.60
2018-02-21T06:31:45.485Z,19.20
2018-02-21T06:34:13.581Z,19.27
2018-02-21T06:36:41.773Z,22.60
2018-02-21T06:39:10.087Z,22.30
2018-02-21T06:41:38.176Z,19.58
2018-02-21T06:44:06.465Z,22.62
2018-02-21T06:46:34.559Z,21.40
2018-02-21T06:49:02.854Z,24.25
2018-02-21T06:51:31.157Z,18.90
2018-02-21T06:53:59.209Z,25.73
2018-02-21T06:56:27.736Z,19.20
2018-02-21T06:58:56.053Z,19.15
2018-02-21T07:01:24.549Z,14.95
2018-02-21T07:03:52.635Z,20.27
2018-02-21T07:06:21.961Z,19.95
2018-02-21T07:08:49.937Z,30.23
2018-02-21T07:11:18.254Z,24.10
2018-02-21T07:13:46.529Z,19.35
2018-02-21T07:16:14.653Z,22.23
2018-02-21T07:18:43.236Z,21.67
2018-02-21T07:21:11.545Z,20.62
2018-02-21T07:23:39.723Z,19.40
2018-02-21T07:26:07.912Z,23.27
2018-02-21T07:28:36.009Z,18.87
2018-02-21T07:31:04.212Z,24.25
2018-02-21T07:33:32.498Z,18.48
2018-02-21T07:36:00.797Z,22.25
2018-02-21T07:38:29.199Z,21.15
2018-02-21T07:40:57.507Z,19.30
2018-02-21T07:43:25.690Z,16.92
2018-02-21T07:45:53.874Z,19.45
2018-02-21T07:48:22.083Z,19.10
2018-02-21T07:50:50.285Z,20.33
2018-02-21T07:53:18.354Z,19.45
2018-02-21T07:55:46.574Z,18.20
2018-02-21T07:58:14.580Z,19.50
2018-02-21T08:00:42.945Z,20.25
2018-02-21T08:03:11.045Z,23.60
2018-02-21T08:05:39.244Z,22.40
2018-02-21T08:08:07.431Z,24.15
2018-02-21T08:10:35.726Z,24.95
2018-02-21T08:13:03.918Z,18.95
2018-02-21T08:15:32.322Z,23.10
2018-02-21T08:18:00.728Z,23.42
2018-02-21T08:20:29.108Z,19.08
2018-02-21T08:22:57.321Z,24.40
2018-02-21T08:25:25.608Z,24.10
2018-02-21T08:27:53.794Z,22.00
2018-02-21T08:30:21.994Z,25.70
2018-02-21T08:32:50.097Z,22.13
2018-02-21T08:35:18.284Z,24.40
2018-02-21T08:37:46.589Z,21.65
2018-02-21T08:40:15.065Z,27.05
2018-02-21T08:42:43.487Z,24.55
2018-02-21T08:45:11.876Z,26.02
2018-02-21T08:47:40.065Z,25.58
2018-02-21T08:50:08.285Z,27.00
2018-02-21T08:52:36.672Z,23.40
2018-02-21T08:55:04.956Z,24.02
2018-02-21T08:57:33.375Z,28.23
2018-02-21T09:00:01.666Z,25.65
2018-02-21T09:02:30.060Z,24.48
2018-02-21T09:04:58.359Z,24.10
2018-02-21T09:07:27.591Z,30.70
2018-02-21T09:09:55.629Z,29.67
2018-02-21T09:12:23.758Z,25.73
2018-02-21T09:14:51.841Z,27.73
2018-02-21T09:17:20.045Z,25.12
2018-02-21T09:19:48.948Z,26.30
2018-02-21T09:22:17.149Z,25.95
2018-02-21T09:24:45.445Z,27.25
2018-02-21T09:27:13.633Z,28.05
2018-02-21T09:29:41.726Z,27.23
2018-02-21T09:32:09.917Z,27.08
2018-02-21T09:34:38.220Z,31.65
2018-02-21T09:37:06.406Z,33.40
2018-02-21T09:39:34.511Z,26.10
2018-02-21T09:42:02.691Z,29.15
2018-02-21T09:44:30.895Z,25.83
2018-02-21T09:46:59.196Z,23.67
2018-02-21T09:49:27.276Z,20.95
2018-02-21T09:51:55.394Z,21.87
2018-02-21T09:54:23.395Z,24.48
2018-02-21T09:56:51.675Z,26.62
2018-02-21T09:59:19.746Z,24.58
2018-02-21T10:01:47.946Z,23.55
2018-02-21T10:04:17.266Z,19.20
2018-02-21T10:06:45.467Z,20.70
2018-02-21T10:09:13.674Z,15.70
2018-02-21T10:11:41.846Z,25.90
2018-02-21T10:14:09.955Z,23.08
2018-02-21T10:16:38.135Z,31.12
2018-02-21T10:19:06.235Z,28.95
2018-02-21T10:21:34.426Z,22.65
2018-02-21T10:24:02.728Z,24.23
2018-02-21T10:26:30.922Z,26.50
2018-02-21T10:28:58.962Z,22.48
2018-02-21T10:31:27.038Z,24.12
2018-02-21T10:33:55.325Z,22.65
2018-02-21T10:36:23.466Z,25.73
2018-02-21T10:38:51.665Z,25.23
2018-02-21T10:41:19.929Z,23.25
2018-02-21T10:43:47.976Z,27.10
2018-02-21T10:46:16.167Z,22.30
2018-02-21T10:48:44.415Z,25.20
2018-02-21T10:51:12.650Z,24.37
2018-02-21T10:53:41.515Z,22.15
2018-02-21T10:56:10.134Z,25.40
2018-02-21T10:58:38.464Z,26.12
2018-02-21T11:01:06.959Z,25.20
2018-02-21T11:03:35.158Z,25.23
2018-02-21T11:06:03.567Z,26.05
2018-02-21T11:08:32.108Z,23.65
2018-02-21T11:11:00.422Z,30.35
2018-02-21T11:13:28.646Z,25.25
2018-02-21T11:15:56.966Z,30.75
2018-02-21T11:18:25.100Z,27.92
2018-02-21T11:20:53.337Z,26.35
2018-02-21T11:23:21.465Z,30.23
2018-02-21T11:25:49.823Z,27.45
2018-02-21T11:28:17.936Z,34.60
2018-02-21T11:30:46.118Z,32.90
2018-02-21T11:33:14.131Z,28.42
2018-02-21T11:35:42.231Z,31.35
2018-02-21T11:38:10.490Z,30.00
2018-02-21T11:40:38.684Z,36.70
2018-02-21T11:43:06.990Z,31.27
2018-02-21T11:45:35.176Z,31.75
2018-02-21T11:48:03.323Z,30.08
2018-02-21T11:50:31.596Z,26.95
2018-02-21T11:52:59.855Z,29.48
2018-02-21T11:55:28.061Z,26.55
2018-02-21T11:57:56.149Z,31.35
2018-02-21T12:00:24.337Z,35.10
2018-02-21T12:02:52.445Z,30.48
2018-02-21T12:05:20.646Z,32.97
2018-02-21T12:07:48.820Z,37.10
2018-02-21T12:10:17.021Z,27.52
2018-02-21T12:12:45.078Z,28.25
2018-02-21T12:15:13.221Z,27.95
2018-02-21T12:17:41.801Z,42.25
2018-02-21T12:20:09.903Z,28.00
2018-02-21T12:22:38.338Z,30.58
2018-02-21T12:25:06.696Z,28.02
2018-02-21T12:27:35.082Z,29.35
2018-02-21T12:30:03.613Z,28.20
2018-02-21T12:32:31.800Z,27.23
2018-02-21T12:34:59.917Z,27.23
2018-02-21T12:37:28.089Z,27.35
2018-02-21T12:39:56.177Z,27.33
2018-02-21T12:42:24.442Z,28.95
2018-02-21T12:44:52.377Z,26.27
2018-02-21T12:47:20.597Z,31.02
2018-02-21T12:49:49.186Z,26.02
2018-02-21T12:52:17.443Z,29.30
2018-02-21T12:54:45.751Z,35.10
2018-02-21T12:57:14.046Z,27.50
2018-02-21T12:59:42.544Z,29.05
2018-02-21T13:02:10.837Z,28.95
2018-02-21T13:04:38.948Z,24.73
2018-02-21T13:07:08.282Z,28.90
2018-02-21T13:09:36.598Z,31.05
2018-02-21T13:12:04.985Z,27.48
2018-02-21T13:14:33.245Z,26.83
2018-02-21T13:17:01.368Z,25.77
2018-02-21T13:19:29.348Z,34.88
2018-02-21T13:21:57.428Z,26.92
2018-02-21T13:24:25.588Z,29.12
2018-02-21T13:26:53.707Z,30.50
2018-02-21T13:29:21.868Z,27.58
2018-02-21T13:31:50.338Z,24.02
2018-02-21T13:34:18.596Z,33.97
2018-02-21T13:36:46.956Z,25.55
2018-02-21T13:39:15.246Z,24.63
2018-02-21T13:41:43.602Z,22.45
2018-02-21T13:44:11.788Z,24.50
2018-02-21T13:46:39.856Z,25.40
2018-02-21T13:49:08.063Z,17.95
2018-02-21T13:51:36.313Z,13.95
2018-02-21T13:54:04.550Z,21.25
2018-02-21T13:56:32.791Z,19.05
2018-02-21T13:59:01.058Z,19.58
2018-02-21T14:01:29.076Z,20.08
2018-02-21T14:03:57.560Z,20.92
2018-02-21T14:06:25.799Z,20.95
2018-02-21T14:08:53.903Z,21.87
2018-02-21T14:11:22.025Z,19.62
2018-02-21T14:13:50.225Z,19.77
2018-02-21T14:16:18.418Z,19.73
2018-02-21T14:18:46.702Z,25.00
2018-02-21T14:21:15.693Z,22.90
2018-02-21T14:23:43.802Z,18.80
2018-02-21T14:26:12.017Z,25.58
2018-02-21T14:28:40.354Z,25.30
2018-02-21T14:31:08.742Z,21.20
2018-02-21T14:33:37.094Z,21.67
2018-02-21T14:36:05.386Z,23.83
2018-02-21T14:38:34.794Z,18.83
2018-02-21T14:41:02.815Z,17.37
2018-02-21T14:43:31.110Z,23.42
2018-02-21T14:45:59.177Z,18.62
2018-02-21T14:48:27.406Z,19.85
2018-02-21T14:50:55.598Z,17.25
2018-02-21T14:53:25.124Z,19.05
2018-02-21T14:55:53.179Z,22.62
2018-02-21T14:58:21.290Z,21.35
2018-02-21T15:00:50.608Z,18.02
2018-02-21T15:03:18.720Z,16.75
2018-02-21T15:05:46.800Z,19.12
2018-02-21T15:08:15.104Z,19.35
2018-02-21T15:10:43.320Z,18.90
2018-02-21T15:13:12.161Z,21.05
2018-02-21T15:15:40.170Z,26.65
2018-02-21T15:18:08.442Z,21.85
2018-02-21T15:20:36.574Z,20.48
2018-02-21T15:23:04.853Z,20.80
2018-02-21T15:25:33.825Z,18.85
2018-02-21T15:28:01.994Z,27.02
2018-02-21T15:30:30.083Z,19.62
2018-02-21T15:32:58.460Z,17.15
2018-02-21T15:35:26.577Z,18.17
2018-02-21T15:37:54.674Z,17.45
2018-02-21T15:40:22.856Z,20.70
2018-02-21T15:42:51.055Z,21.85
2018-02-21T15:45:19.495Z,24.40
2018-02-21T15:47:47.839Z,21.55
2018-02-21T15:50:15.920Z,28.10
2018-02-21T15:52:45.029Z,25.85
2018-02-21T15:55:13.245Z,21.48
2018-02-21T15:57:42.417Z,30.70
2018-02-21T16:00:10.596Z,22.87
2018-02-21T16:02:39.057Z,22.45
2018-02-21T16:05:07.154Z,27.17
2018-02-21T16:07:35.451Z,24.50
2018-02-21T16:10:03.740Z,26.23
2018-02-21T16:12:31.839Z,21.95
2018-02-21T16:15:00.028Z,21.75
2018-02-21T16:17:29.144Z,26.23
2018-02-21T16:19:57.325Z,22.10
2018-02-21T16:22:25.421Z,28.83
2018-02-21T16:24:53.548Z,25.05
2018-02-21T16:27:21.748Z,22.67
2018-02-21T16:29:49.915Z,18.85
2018-02-21T16:32:18.209Z,22.98
2018-02-21T16:34:46.402Z,21.52
2018-02-21T16:37:14.627Z,21.20
2018-02-21T16:39:42.986Z,20.70
2018-02-21T16:42:11.196Z,21.17
2018-02-21T16:44:39.387Z,23.25
2018-02-21T16:47:07.585Z,37.45
2018-02-21T16:49:35.783Z,21.25
2018-02-21T16:52:03.957Z,17.75
2018-02-21T16:54:32.069Z,23.83
2018-02-21T16:57:00.263Z,25.88
2018-02-21T16:59:28.355Z,28.08
2018-02-21T17:01:56.538Z,24.50
2018-02-21T17:04:24.729Z,23.40
2018-02-21T17:06:53.035Z,26.85
2018-02-21T17:09:21.338Z,24.15
2018-02-21T17:11:49.526Z,28.02
2018-02-21T17:14:17.820Z,28.05
2018-02-21T17:16:46.017Z,26.83
2018-02-21T17:19:14.165Z,21.45
2018-02-21T17:21:42.403Z,26.92
2018-02-21T17:24:10.603Z,26.73
2018-02-21T17:26:38.798Z,18.12
2018-02-21T17:29:06.880Z,19.75
2018-02-21T17:31:34.983Z,23.30
2018-02-21T17:34:03.179Z,19.65
2018-02-21T17:36:31.358Z,17.83
2018-02-21T17:38:59.559Z,22.13
2018-02-21T17:41:27.752Z,25.58
2018-02-21T17:43:55.952Z,20.50
2018-02-21T17:46:24.040Z,20.05
2018-02-21T17:48:52.240Z,29.10
2018-02-21T17:51:20.410Z,25.23
2018-02-21T17:53:48.569Z,21.12
2018-02-21T17:56:16.721Z,26.10
2018-02-21T17:58:44.907Z,32.85
2018-02-21T18:01:13.157Z,27.37
2018-02-21T18:03:41.287Z,20.95
2018-02-21T18:06:09.489Z,22.13
2018-02-21T18:08:37.695Z,30.55
2018-02-21T18:11:05.877Z,23.85
2018-02-21T18:13:34.075Z,28.12
2018-02-21T18:16:03.188Z,24.25
2018-02-21T18:18:31.279Z,24.83
2018-02-21T18:20:59.386Z,23.83
2018-02-21T18:23:27.778Z,32.08
2018-02-21T18:25:56.178Z,23.38
2018-02-21T18:28:24.357Z,25.25
2018-02-21T18:30:52.658Z,27.65
2018-02-21T18:33:21.682Z,35.45
2018-02-21T18:35:49.760Z,30.75
2018-02-21T18:38:17.862Z,28.45
2018-02-21T18:40:46.157Z,33.92
2018-02-21T18:43:14.149Z,37.22
2018-02-21T18:45:42.339Z,38.15
2018-02-21T18:48:10.839Z,32.97
2018-02-21T18:50:39.974Z,38.63
2018-02-21T18:53:08.147Z,29.27
2018-02-21T18:55:36.745Z,30.98
2018-02-21T18:58:04.942Z,32.35
2018-02-21T19:00:33.136Z,33.92
2018-02-21T19:03:01.834Z,34.65
2018-02-21T19:05:30.046Z,40.63
2018-02-21T19:07:58.225Z,29.52
2018-02-21T19:10:26.426Z,32.67
2018-02-21T19:12:54.624Z,37.58
2018-02-21T19:15:22.825Z,35.55
2018-02-21T19:17:51.005Z,37.67
2018-02-21T19:20:19.145Z,34.85
2018-02-21T19:22:47.144Z,35.80
2018-02-21T19:25:15.285Z,36.85
2018-02-21T19:27:43.572Z,36.25
2018-02-21T19:30:11.665Z,38.10
2018-02-21T19:32:39.764Z,44.45
2018-02-21T19:35:08.285Z,40.30
2018-02-21T19:37:36.462Z,37.72
2018-02-21T19:40:04.661Z,46.67
2018-02-21T19:42:32.968Z,49.50
2018-02-21T19:45:01.141Z,36.92
2018-02-21T19:47:29.360Z,36.67
2018-02-21T19:49:57.544Z,34.05
2018-02-21T19:52:25.640Z,45.12
2018-02-21T19:54:53.823Z,36.80
2018-02-21T19:57:21.921Z,41.55
2018-02-21T19:59:50.112Z,36.60
2018-02-21T20:02:18.212Z,33.95
2018-02-21T20:04:46.331Z,36.47
2018-02-21T20:07:14.311Z,35.22
2018-02-21T20:09:42.591Z,40.47
2018-02-21T20:12:10.872Z,40.40
2018-02-21T20:14:39.071Z,39.00
2018-02-21T20:17:07.151Z,40.97
2018-02-21T20:19:35.355Z,35.97
2018-02-21T20:22:03.551Z,45.28
2018-02-21T20:24:31.751Z,39.58
2018-02-21T20:27:00.139Z,46.90
2018-02-21T20:29:28.441Z,39.10
2018-02-21T20:31:56.594Z,41.05
2018-02-21T20:34:24.843Z,47.38
2018-02-21T20:36:52.923Z,41.08
2018-02-21T20:39:22.870Z,37.92
2018-02-21T20:41:51.062Z,41.85
2018-02-21T20:44:19.143Z,45.08
2018-02-21T20:46:47.341Z,46.00
2018-02-21T20:49:15.541Z,46.10
2018-02-21T20:51:43.722Z,40.97
2018-02-21T20:54:11.916Z,48.35
2018-02-21T20:56:40.116Z,46.47
2018-02-21T20:59:08.316Z,44.55
2018-02-21T21:01:36.497Z,45.00
2018-02-21T21:04:04.595Z,42.38
2018-02-21T21:06:32.784Z,47.75
2018-02-21T21:09:00.885Z,46.63
2018-02-21T21:11:29.084Z,43.78
2018-02-21T21:13:57.269Z,47.08
2018-02-21T21:16:25.475Z,44.15
2018-02-21T21:18:53.795Z,53.85
2018-02-21T21:21:22.154Z,46.55
2018-02-21T21:23:50.255Z,42.85
2018-02-21T21:26:18.458Z,51.20
2018-02-21T21:28:47.259Z,47.05
2018-02-21T21:31:15.544Z,44.58
2018-02-21T21:33:43.775Z,48.03
2018-02-21T21:36:11.948Z,44.70
2018-02-21T21:38:40.141Z,47.33
2018-02-21T21:41:08.325Z,49.33
2018-02-21T21:43:36.743Z,53.15
2018-02-21T21:46:05.017Z,46.40
2018-02-21T21:48:33.227Z,49.90
2018-02-21T21:51:01.407Z,53.08
2018-02-21T21:53:29.716Z,50.55
2018-02-21T21:55:58.021Z,40.92
2018-02-21T21:58:26.308Z,55.42
2018-02-21T22:00:54.726Z,55.80
2018-02-21T22:03:23.011Z,48.35
2018-02-21T22:05:51.301Z,48.03
2018-02-21T22:08:19.324Z,57.58
2018-02-21T22:10:47.354Z,54.75
2018-02-21T22:13:15.571Z,51.05
2018-02-21T22:15:43.767Z,51.42
2018-02-21T22:18:11.959Z,52.08
2018-02-21T22:20:40.158Z,57.20
2018-02-21T22:23:08.356Z,49.55
2018-02-21T22:25:36.648Z,57.97
2018-02-21T22:28:04.750Z,46.00
2018-02-21T22:30:32.932Z,55.83
2018-02-21T22:33:01.142Z,50.88
2018-02-21T22:35:29.426Z,54.00
2018-02-21T22:37:57.731Z,44.78
2018-02-21T22:40:26.031Z,49.65
2018-02-21T22:42:54.416Z,55.47
2018-02-21T22:45:22.717Z,52.25
2018-02-21T22:47:51.109Z,53.15
2018-02-21T22:50:19.427Z,52.60
2018-02-21T22:52:47.507Z,51.95
2018-02-21T22:55:16.381Z,57.35
2018-02-21T22:57:44.423Z,65.40
2018-02-21T23:00:12.599Z,55.28
2018-02-21T23:02:40.827Z,57.10
2018-02-21T23:05:08.877Z,65.45
2018-02-21T23:07:37.087Z,56.85
2018-02-21T23:10:05.149Z,52.85
2018-02-21T23:12:33.465Z,58.40
2018-02-21T23:15:01.762Z,54.55
2018-02-21T23:17:30.067Z,55.78
2018-02-21T23:19:58.262Z,71.53
2018-02-21T23:22:26.557Z,61.92
2018-02-21T23:24:54.651Z,54.97
2018-02-21T23:27:22.861Z,47.42
2018-02-21T23:29:51.041Z,52.35
2018-02-21T23:32:19.169Z,43.38
2018-02-21T23:34:47.316Z,50.83
2018-02-21T23:37:15.608Z,45.15
2018-02-21T23:39:43.799Z,46.03
2018-02-21T23:42:11.917Z,46.25
2018-02-21T23:44:39.935Z,51.00
2018-02-21T23:47:08.106Z,53.28
2018-02-21T23:49:36.373Z,59.90
2018-02-21T23:52:04.688Z,60.67
2018-02-21T23:54:32.989Z,55.88
2018-02-21T23:57:01.251Z,57.62
2018-02-21T23:59:29.423Z,57.15
